Time;durP1;ratioP1;P1;durP2;ratioP2;P2;SDS_P1;SDS_P2;PMS_P1;PMS_P2;Temp;Humidity;BMP_temperature;BMP_pressure;BME280_temperature;BME280_humidity;BME280_pressure;Samples;Min_cycle;Max_cycle;Signal;HPM_P1;HPM_P2
2021/12/19 00:00:29;;;;;;;17.75;5.18;;;;;;;;;;5005790;28;20025;-60
2021/12/19 00:08:50;;;;;;;15.45;5.18;;;;;;;;;;4989594;28;20045;-59
2021/12/19 00:11:26;;;;;;;17.60;6.10;;;;;;;;;;4987411;28;20046;-60
2021/12/19 00:13:54;;;;;;;24.58;5.80;;;;;;;;;;5005767;28;20070;-60
2021/12/19 00:16:20;;;;;;;16.02;6.05;;;;;;;;;;4990222;28;20148;-59
2021/12/19 00:18:50;;;;;;;20.20;5.82;;;;;;;;;;5006314;28;20137;-60
2021/12/19 00:21:16;;;;;;;21.73;5.60;;;;;;;;;;4990583;28;20042;-59
2021/12/19 00:23:42;;;;;;;15.82;4.93;;;;;;;;;;4990071;28;20030;-59
2021/12/19 00:26:10;;;;;;;13.77;4.70;;;;;;;;;;4989734;28;20060;-60
2021/12/19 00:28:41;;;;;;;14.45;4.57;;;;;;;;;;4990282;28;20052;-60
2021/12/19 00:31:09;;;;;;;11.00;3.00;;;;;;;;;;4993747;28;20826;-59
2021/12/19 00:33:34;;;;;;;10.00;2.80;;;;;;;;;;4990273;28;20151;-60
2021/12/19 00:36:05;;;;;;;15.25;2.50;;;;;;;;;;4990029;28;20053;-59
2021/12/19 00:38:31;;;;;;;18.35;2.67;;;;;;;;;;4989301;28;20065;-58
2021/12/19 00:40:59;;;;;;;11.05;1.70;;;;;;;;;;4991336;28;20466;-60
2021/12/19 00:43:35;;;;;;;6.20;2.05;;;;;;;;;;4990118;28;20040;-59
2021/12/19 00:46:07;;;;;;;1.80;0.88;;;;;;;;;;4991286;28;20252;-59
2021/12/19 00:48:37;;;;;;;3.92;0.50;;;;;;;;;;4981316;28;20048;-59
2021/12/19 00:51:05;;;;;;;2.92;1.30;;;;;;;;;;4990759;28;20025;-60
2021/12/19 00:53:31;;;;;;;6.00;1.00;;;;;;;;;;4988304;28;20623;-60
2021/12/19 00:55:56;;;;;;;3.45;0.77;;;;;;;;;;4990567;28;20091;-60
2021/12/19 00:58:22;;;;;;;1.08;0.80;;;;;;;;;;4988147;28;20781;-58
2021/12/19 01:00:47;;;;;;;5.47;0.90;;;;;;;;;;4990383;28;20033;-59
2021/12/19 01:03:13;;;;;;;2.55;1.10;;;;;;;;;;4990049;28;20432;-59
2021/12/19 01:05:40;;;;;;;1.95;0.80;;;;;;;;;;4988095;28;20036;-59
2021/12/19 01:08:06;;;;;;;4.55;0.80;;;;;;;;;;4979225;28;20037;-59
2021/12/19 01:10:32;;;;;;;4.85;0.57;;;;;;;;;;4987665;28;20096;-60
2021/12/19 01:13:04;;;;;;;1.27;0.50;;;;;;;;;;4985652;28;20101;-59
2021/12/19 01:15:30;;;;;;;5.88;0.43;;;;;;;;;;4985929;28;20501;-59
2021/12/19 01:17:56;;;;;;;2.63;0.30;;;;;;;;;;4988346;28;20431;-60
2021/12/19 01:20:25;;;;;;;0.75;0.45;;;;;;;;;;4985870;28;20117;-59
2021/12/19 01:23:01;;;;;;;1.73;0.47;;;;;;;;;;4986768;28;20544;-59
2021/12/19 01:25:26;;;;;;;0.75;0.45;;;;;;;;;;5004508;28;20033;-59
2021/12/19 01:27:54;;;;;;;5.18;0.63;;;;;;;;;;4987059;28;20046;-59
2021/12/19 01:30:20;;;;;;;1.20;0.60;;;;;;;;;;4988641;28;20041;-59
2021/12/19 01:32:49;;;;;;;1.35;0.45;;;;;;;;;;4987091;28;20030;-59
2021/12/19 01:35:17;;;;;;;5.43;0.90;;;;;;;;;;4989208;28;20045;-59
2021/12/19 01:37:42;;;;;;;6.00;0.80;;;;;;;;;;4980199;28;20052;-60
2021/12/19 01:40:14;;;;;;;2.00;0.80;;;;;;;;;;4978276;28;20030;-59
2021/12/19 01:42:45;;;;;;;10.00;1.20;;;;;;;;;;4986669;28;20152;-58
2021/12/19 01:45:17;;;;;;;12.40;2.00;;;;;;;;;;4978846;28;20033;-59
2021/12/19 01:47:43;;;;;;;1.90;1.15;;;;;;;;;;4987353;28;20049;-58
2021/12/19 01:50:09;;;;;;;2.78;1.30;;;;;;;;;;4984307;28;20050;-59
2021/12/19 01:52:37;;;;;;;5.93;1.13;;;;;;;;;;4986334;28;20529;-60
2021/12/19 01:55:05;;;;;;;7.15;1.42;;;;;;;;;;4989532;28;20169;-61
2021/12/19 01:57:34;;;;;;;5.32;1.38;;;;;;;;;;4986725;28;20033;-59
2021/12/19 02:00:02;;;;;;;5.65;1.55;;;;;;;;;;5004661;28;20473;-59
2021/12/19 02:02:27;;;;;;;1.38;0.95;;;;;;;;;;4972188;28;20034;-59
2021/12/19 02:04:52;;;;;;;1.15;0.57;;;;;;;;;;4984737;28;20112;-60
2021/12/19 02:07:25;;;;;;;2.53;0.65;;;;;;;;;;4977484;28;20073;-59
2021/12/19 02:09:50;;;;;;;3.97;0.38;;;;;;;;;;4987859;28;20504;-61
2021/12/19 02:12:18;;;;;;;1.67;0.40;;;;;;;;;;4985314;28;20057;-59
2021/12/19 02:14:45;;;;;;;2.35;0.50;;;;;;;;;;5001845;28;20030;-59
2021/12/19 02:17:13;;;;;;;0.93;0.35;;;;;;;;;;4962573;28;20430;-59
2021/12/19 02:19:45;;;;;;;3.97;0.30;;;;;;;;;;4986609;28;20029;-60
2021/12/19 02:22:11;;;;;;;3.92;0.60;;;;;;;;;;5002883;28;20041;-59
2021/12/19 02:24:36;;;;;;;0.80;0.50;;;;;;;;;;4987092;28;21694;-60
2021/12/19 02:27:02;;;;;;;2.38;0.47;;;;;;;;;;4986211;28;20473;-58
2021/12/19 02:29:30;;;;;;;2.95;0.45;;;;;;;;;;4984244;28;20029;-59
2021/12/19 02:32:14;;;;;;;0.50;0.38;;;;;;;;;;4977591;28;21886;-59
2021/12/19 02:34:43;;;;;;;2.78;0.60;;;;;;;;;;4986048;28;20030;-60
2021/12/19 02:37:47;;;;;;;1.63;0.40;;;;;;;;;;4987211;28;20045;-59
2021/12/19 02:48:13;;;;;;;3.80;0.50;;;;;;;;;;4988024;28;20042;-60
2021/12/19 02:50:49;;;;;;;3.40;0.43;;;;;;;;;;4987263;28;20033;-59
2021/12/19 02:53:26;;;;;;;2.00;0.60;;;;;;;;;;4987090;28;20045;-59
2021/12/19 02:55:53;;;;;;;2.35;0.68;;;;;;;;;;4987222;28;20030;-61
2021/12/19 02:58:22;;;;;;;4.68;0.68;;;;;;;;;;4979580;28;20041;-59
2021/12/19 03:00:48;;;;;;;1.73;0.70;;;;;;;;;;4986086;28;20386;-61
2021/12/19 03:03:16;;;;;;;2.08;0.45;;;;;;;;;;4987566;28;20044;-60
2021/12/19 03:05:42;;;;;;;10.32;1.38;;;;;;;;;;4986889;28;20401;-59
2021/12/19 03:08:09;;;;;;;2.67;1.27;;;;;;;;;;4987648;28;20053;-60
2021/12/19 03:18:57;;;;;;;4.85;0.68;;;;;;;;;;5003904;28;20052;-60
2021/12/19 03:21:25;;;;;;;4.97;0.60;;;;;;;;;;4977168;28;20041;-59
2021/12/19 03:23:54;;;;;;;0.98;0.47;;;;;;;;;;4986138;28;20046;-59
2021/12/19 03:26:21;;;;;;;7.55;0.60;;;;;;;;;;4975889;28;20025;-60
2021/12/19 03:28:48;;;;;;;11.00;0.90;;;;;;;;;;4987294;28;20046;-59
2021/12/19 03:31:16;;;;;;;1.55;0.65;;;;;;;;;;4988288;28;20034;-59
2021/12/19 03:33:46;;;;;;;2.20;0.57;;;;;;;;;;4986919;28;20033;-58
2021/12/19 03:36:11;;;;;;;1.40;0.77;;;;;;;;;;4979096;28;20682;-60
2021/12/19 03:38:43;;;;;;;7.30;1.00;;;;;;;;;;4988931;28;20048;-59
2021/12/19 03:41:22;;;;;;;9.85;1.10;;;;;;;;;;4986733;28;20069;-60
2021/12/19 03:43:50;;;;;;;9.40;0.95;;;;;;;;;;5005717;28;20040;-59
2021/12/19 03:46:15;;;;;;;6.32;1.05;;;;;;;;;;4981929;28;20036;-59
2021/12/19 03:48:43;;;;;;;10.18;1.00;;;;;;;;;;4990242;28;20038;-58
2021/12/19 03:51:09;;;;;;;5.20;0.63;;;;;;;;;;4988926;28;20017;-59
2021/12/19 03:53:35;;;;;;;10.27;1.13;;;;;;;;;;4980828;28;20095;-58
2021/12/19 03:56:05;;;;;;;2.42;0.90;;;;;;;;;;5005325;28;20018;-59
2021/12/19 03:58:36;;;;;;;7.35;0.80;;;;;;;;;;4989426;28;20133;-60
2021/12/19 04:01:07;;;;;;;7.05;1.25;;;;;;;;;;4988807;28;20033;-60
2021/12/19 04:03:33;;;;;;;12.30;1.38;;;;;;;;;;4989529;28;20072;-59
2021/12/19 04:06:04;;;;;;;8.65;2.03;;;;;;;;;;4988759;28;20647;-59
2021/12/19 04:08:34;;;;;;;3.85;1.25;;;;;;;;;;4989758;28;20042;-58
2021/12/19 04:11:02;;;;;;;2.60;1.38;;;;;;;;;;4989346;28;20073;-60
2021/12/19 04:13:27;;;;;;;10.43;1.75;;;;;;;;;;4988916;28;20549;-59
2021/12/19 04:15:55;;;;;;;6.75;1.75;;;;;;;;;;4989381;28;20068;-59
2021/12/19 04:18:23;;;;;;;13.18;2.10;;;;;;;;;;4987482;28;20041;-59
2021/12/19 04:20:51;;;;;;;7.50;1.75;;;;;;;;;;4988527;28;20034;-59
2021/12/19 04:23:18;;;;;;;7.05;3.03;;;;;;;;;;4989733;28;20091;-58
2021/12/19 04:25:46;;;;;;;20.38;3.30;;;;;;;;;;4988934;28;20654;-59
2021/12/19 04:28:14;;;;;;;14.60;3.38;;;;;;;;;;4987276;28;20127;-59
2021/12/19 04:30:44;;;;;;;19.42;3.60;;;;;;;;;;4988371;28;20030;-58
2021/12/19 04:33:12;;;;;;;15.80;4.18;;;;;;;;;;4987921;28;20030;-59
2021/12/19 04:35:42;;;;;;;25.00;4.88;;;;;;;;;;4988725;28;20895;-59
2021/12/19 04:39:01;;;;;;;12.77;4.22;;;;;;;;;;4987504;28;20042;-58
2021/12/19 04:55:21;;;;;;;22.92;4.40;;;;;;;;;;4984174;28;20119;-59
2021/12/19 04:57:56;;;;;;;15.75;3.75;;;;;;;;;;4987208;28;20038;-60
2021/12/19 05:06:05;;;;;;;21.63;4.72;;;;;;;;;;4988802;28;20084;-59
2021/12/19 05:14:17;;;;;;;27.40;5.25;;;;;;;;;;4986937;28;20038;-59
2021/12/19 05:16:46;;;;;;;25.35;5.85;;;;;;;;;;4986609;28;20034;-60
2021/12/19 05:19:29;;;;;;;33.40;6.72;;;;;;;;;;4978233;28;20171;-59
2021/12/19 05:22:02;;;;;;;20.65;5.93;;;;;;;;;;5004771;28;20025;-60
2021/12/19 05:27:09;;;;;;;18.10;5.45;;;;;;;;;;4988234;28;20042;-60
2021/12/19 05:29:35;;;;;;;25.35;6.45;;;;;;;;;;4988989;28;20485;-59
2021/12/19 05:32:04;;;;;;;12.75;5.45;;;;;;;;;;4986434;28;20022;-59
2021/12/19 05:34:32;;;;;;;21.90;6.35;;;;;;;;;;4987224;28;20518;-59
2021/12/19 05:45:26;;;;;;;29.80;6.50;;;;;;;;;;4988546;28;20046;-59
2021/12/19 05:47:54;;;;;;;27.92;5.80;;;;;;;;;;4987951;28;20025;-59
2021/12/19 05:50:22;;;;;;;26.13;5.68;;;;;;;;;;4988860;28;20120;-59
2021/12/19 05:52:49;;;;;;;26.27;6.07;;;;;;;;;;4987055;28;20041;-59
2021/12/19 05:55:20;;;;;;;23.50;6.00;;;;;;;;;;4987740;28;20401;-59
2021/12/19 05:57:50;;;;;;;20.50;5.90;;;;;;;;;;4987289;28;20066;-59
2021/12/19 06:00:21;;;;;;;26.20;4.22;;;;;;;;;;4987816;28;20032;-59
2021/12/19 06:02:52;;;;;;;22.88;4.65;;;;;;;;;;4986646;28;20129;-59
2021/12/19 06:05:17;;;;;;;11.23;4.85;;;;;;;;;;4986531;28;20116;-59
2021/12/19 06:07:50;;;;;;;12.35;4.43;;;;;;;;;;4984846;28;20034;-60
2021/12/19 06:10:21;;;;;;;14.55;4.40;;;;;;;;;;4985658;28;20030;-60
2021/12/19 06:12:46;;;;;;;23.00;5.22;;;;;;;;;;5002235;28;20101;-59
2021/12/19 06:15:14;;;;;;;28.48;4.50;;;;;;;;;;4985637;28;20030;-60
2021/12/19 06:17:46;;;;;;;21.05;4.32;;;;;;;;;;4978461;28;20033;-59
2021/12/19 06:20:12;;;;;;;15.50;4.82;;;;;;;;;;4979038;28;20042;-59
2021/12/19 06:22:38;;;;;;;17.00;4.13;;;;;;;;;;4985599;28;20036;-59
2021/12/19 06:25:06;;;;;;;31.55;4.55;;;;;;;;;;4987442;28;20038;-59
2021/12/19 06:27:36;;;;;;;27.70;4.97;;;;;;;;;;4984393;28;20123;-59
2021/12/19 06:30:07;;;;;;;19.70;4.35;;;;;;;;;;4986950;28;20112;-60
2021/12/19 06:32:38;;;;;;;21.17;4.93;;;;;;;;;;4969747;28;20665;-59
2021/12/19 06:35:07;;;;;;;16.52;3.83;;;;;;;;;;4986876;28;20157;-60
2021/12/19 06:37:38;;;;;;;16.38;3.33;;;;;;;;;;4987420;28;20046;-60
2021/12/19 06:40:07;;;;;;;27.15;3.97;;;;;;;;;;4988013;28;20038;-58
2021/12/19 06:42:41;;;;;;;13.13;2.95;;;;;;;;;;4986224;28;20472;-60
2021/12/19 06:45:10;;;;;;;13.57;3.40;;;;;;;;;;4970003;28;20296;-60
2021/12/19 06:47:35;;;;;;;15.45;3.10;;;;;;;;;;4986003;28;21062;-60
2021/12/19 06:50:03;;;;;;;11.38;3.25;;;;;;;;;;4983794;28;20033;-60
2021/12/19 06:52:31;;;;;;;15.57;3.03;;;;;;;;;;4983284;28;20034;-59
2021/12/19 06:55:01;;;;;;;9.80;2.15;;;;;;;;;;4960242;28;20046;-59
2021/12/19 06:57:29;;;;;;;11.93;2.55;;;;;;;;;;4987303;28;20164;-59
2021/12/19 06:59:57;;;;;;;12.02;2.17;;;;;;;;;;4987029;28;20026;-61
2021/12/19 07:02:25;;;;;;;10.68;2.30;;;;;;;;;;4999585;28;20038;-59
2021/12/19 07:04:51;;;;;;;8.55;2.55;;;;;;;;;;4969621;28;20053;-60
2021/12/19 07:07:21;;;;;;;13.52;2.67;;;;;;;;;;4985471;28;20038;-59
2021/12/19 07:09:47;;;;;;;10.02;2.45;;;;;;;;;;4984543;28;20034;-59
2021/12/19 07:12:12;;;;;;;25.10;2.60;;;;;;;;;;4987018;28;20065;-59
2021/12/19 07:14:43;;;;;;;20.65;2.45;;;;;;;;;;4984414;28;20093;-59
2021/12/19 07:17:11;;;;;;;14.10;2.05;;;;;;;;;;4985498;28;20093;-59
2021/12/19 07:19:42;;;;;;;18.02;2.45;;;;;;;;;;4971843;28;20442;-59
2021/12/19 07:22:09;;;;;;;13.93;2.58;;;;;;;;;;4992009;28;20245;-59
2021/12/19 07:24:35;;;;;;;7.90;2.67;;;;;;;;;;4991410;28;20115;-59
2021/12/19 07:27:01;;;;;;;18.33;2.65;;;;;;;;;;4991120;28;20091;-59
2021/12/19 07:29:26;;;;;;;30.38;3.35;;;;;;;;;;4989918;28;20033;-59
2021/12/19 07:31:54;;;;;;;14.80;2.65;;;;;;;;;;4991134;28;20029;-59
2021/12/19 07:34:23;;;;;;;13.93;2.72;;;;;;;;;;4989625;28;20045;-59
2021/12/19 07:36:52;;;;;;;15.45;2.65;;;;;;;;;;4991131;28;21009;-59
2021/12/19 07:39:52;;;;;;;10.75;2.83;;;;;;;;;;5006806;28;20033;-59
2021/12/19 07:42:09;;;;;;;9.82;2.40;;;;;;;;;;4990896;28;20034;-61
2021/12/19 07:44:35;;;;;;;13.65;1.92;;;;;;;;;;4973347;28;20163;-60
2021/12/19 07:47:01;;;;;;;15.95;2.45;;;;;;;;;;4991053;28;20365;-59
2021/12/19 07:49:31;;;;;;;17.92;2.53;;;;;;;;;;4990528;28;20030;-59
2021/12/19 07:52:02;;;;;;;15.70;3.10;;;;;;;;;;4989028;28;20029;-58
2021/12/19 07:54:32;;;;;;;11.27;2.55;;;;;;;;;;4988659;28;20034;-59
2021/12/19 07:57:00;;;;;;;22.92;2.55;;;;;;;;;;4988583;28;20093;-59
2021/12/19 07:59:25;;;;;;;16.75;3.30;;;;;;;;;;5007005;28;20822;-59
2021/12/19 08:01:53;;;;;;;24.15;3.45;;;;;;;;;;4989188;28;20096;-59
2021/12/19 08:04:19;;;;;;;18.52;2.30;;;;;;;;;;4985638;28;20172;-60
2021/12/19 08:06:44;;;;;;;14.77;2.35;;;;;;;;;;4988639;28;22027;-59
2021/12/19 08:09:20;;;;;;;22.52;2.97;;;;;;;;;;4988024;28;20103;-60
2021/12/19 08:11:51;;;;;;;16.17;2.70;;;;;;;;;;4989219;28;20221;-59
2021/12/19 08:14:21;;;;;;;8.77;2.60;;;;;;;;;;4989482;28;20033;-59
2021/12/19 08:16:49;;;;;;;18.00;3.10;;;;;;;;;;4980727;28;20029;-59
2021/12/19 08:19:17;;;;;;;9.80;2.75;;;;;;;;;;4972028;28;20147;-60
2021/12/19 08:21:47;;;;;;;6.93;1.77;;;;;;;;;;4990344;28;20591;-61
2021/12/19 08:24:14;;;;;;;21.73;2.67;;;;;;;;;;4988160;28;20038;-60
2021/12/19 08:26:41;;;;;;;15.43;2.67;;;;;;;;;;4987335;28;20164;-58
2021/12/19 08:29:06;;;;;;;12.98;2.35;;;;;;;;;;4986136;28;20104;-60
2021/12/19 08:31:32;;;;;;;9.98;2.63;;;;;;;;;;4989062;28;20018;-59
2021/12/19 08:34:00;;;;;;;11.30;2.55;;;;;;;;;;4988184;28;20484;-58
2021/12/19 08:36:26;;;;;;;15.18;2.97;;;;;;;;;;4989449;28;20129;-60
2021/12/19 08:38:54;;;;;;;13.68;2.92;;;;;;;;;;4986217;28;20033;-60
2021/12/19 08:41:22;;;;;;;8.02;1.75;;;;;;;;;;4989048;28;20029;-59
2021/12/19 08:43:53;;;;;;;8.85;2.17;;;;;;;;;;4971918;28;20046;-60
2021/12/19 08:46:18;;;;;;;15.05;2.70;;;;;;;;;;5001305;28;20216;-59
2021/12/19 08:48:44;;;;;;;10.90;2.22;;;;;;;;;;4990088;28;20029;-60
2021/12/19 08:51:12;;;;;;;14.65;1.80;;;;;;;;;;4988532;28;20115;-60
2021/12/19 08:53:38;;;;;;;11.68;2.40;;;;;;;;;;4989804;28;20018;-59
2021/12/19 08:56:06;;;;;;;13.75;2.60;;;;;;;;;;4980896;28;20641;-58
2021/12/19 08:58:33;;;;;;;20.25;2.15;;;;;;;;;;4985728;28;20026;-58
2021/12/19 09:01:02;;;;;;;18.08;2.47;;;;;;;;;;4985935;28;20476;-59
2021/12/19 09:03:31;;;;;;;22.33;2.42;;;;;;;;;;4989158;28;20403;-58
2021/12/19 09:05:57;;;;;;;14.60;3.45;;;;;;;;;;4988604;28;20034;-58
2021/12/19 09:08:22;;;;;;;11.93;1.45;;;;;;;;;;4987969;28;20033;-59
2021/12/19 09:10:50;;;;;;;12.40;2.42;;;;;;;;;;4985354;28;20116;-58
2021/12/19 09:13:17;;;;;;;21.60;2.08;;;;;;;;;;5001303;28;20192;-60
2021/12/19 09:15:42;;;;;;;15.07;2.00;;;;;;;;;;4991406;28;20029;-59
2021/12/19 09:18:08;;;;;;;8.95;1.95;;;;;;;;;;4968861;28;20140;-59
2021/12/19 09:20:36;;;;;;;16.15;1.40;;;;;;;;;;4986303;28;20652;-59
2021/12/19 09:23:02;;;;;;;18.55;2.25;;;;;;;;;;4987728;28;22053;-59
2021/12/19 09:25:30;;;;;;;10.45;1.83;;;;;;;;;;4987716;28;20040;-59
2021/12/19 09:27:58;;;;;;;12.32;2.60;;;;;;;;;;4988702;28;20038;-59
2021/12/19 09:30:25;;;;;;;13.30;1.70;;;;;;;;;;4986000;28;20124;-59
2021/12/19 09:32:53;;;;;;;29.38;2.65;;;;;;;;;;4986010;28;20041;-59
2021/12/19 09:35:21;;;;;;;15.65;2.50;;;;;;;;;;4988195;28;20038;-59
2021/12/19 09:37:46;;;;;;;12.57;1.70;;;;;;;;;;4979732;28;20037;-59
2021/12/19 09:40:19;;;;;;;17.27;1.90;;;;;;;;;;4970091;28;20115;-59
2021/12/19 09:42:49;;;;;;;21.77;2.25;;;;;;;;;;5001913;28;20038;-59
2021/12/19 09:45:16;;;;;;;20.83;2.40;;;;;;;;;;4988511;28;20026;-59
2021/12/19 09:47:45;;;;;;;17.17;2.50;;;;;;;;;;4985366;28;20042;-60
2021/12/19 09:50:12;;;;;;;16.10;2.67;;;;;;;;;;4987738;28;20034;-59
2021/12/19 09:52:38;;;;;;;15.90;2.50;;;;;;;;;;4988852;28;20103;-59
2021/12/19 09:55:16;;;;;;;15.07;2.35;;;;;;;;;;4988199;28;20038;-59
2021/12/19 09:57:41;;;;;;;18.23;2.03;;;;;;;;;;4979504;28;20034;-59
2021/12/19 10:00:11;;;;;;;15.27;1.90;;;;;;;;;;4982672;28;20034;-60
2021/12/19 10:02:37;;;;;;;12.85;2.08;;;;;;;;;;4987594;28;20082;-59
2021/12/19 10:05:20;;;;;;;17.98;2.13;;;;;;;;;;4970675;28;20112;-59
2021/12/19 10:07:47;;;;;;;18.40;2.58;;;;;;;;;;4989377;28;20114;-60
2021/12/19 10:10:24;;;;;;;22.95;1.73;;;;;;;;;;4988549;28;20025;-59
2021/12/19 10:12:57;;;;;;;13.98;2.53;;;;;;;;;;4987061;28;20064;-59
2021/12/19 10:15:36;;;;;;;14.52;1.55;;;;;;;;;;4986037;28;20080;-59
2021/12/19 10:18:12;;;;;;;23.52;2.15;;;;;;;;;;4986040;28;20034;-59
2021/12/19 10:20:48;;;;;;;13.45;1.77;;;;;;;;;;4985408;28;20046;-59
2021/12/19 10:23:15;;;;;;;11.60;2.38;;;;;;;;;;4985391;28;20049;-62
2021/12/19 10:25:44;;;;;;;15.38;2.15;;;;;;;;;;4978738;28;20026;-59
2021/12/19 10:28:10;;;;;;;8.30;1.38;;;;;;;;;;4984277;28;20034;-59
2021/12/19 10:30:40;;;;;;;10.95;2.03;;;;;;;;;;4999996;28;20030;-59
2021/12/19 10:33:08;;;;;;;20.67;1.95;;;;;;;;;;4984850;28;20120;-57
2021/12/19 10:35:44;;;;;;;9.98;2.10;;;;;;;;;;4987446;28;20061;-59
2021/12/19 10:38:15;;;;;;;11.88;1.75;;;;;;;;;;4985888;28;20124;-57
2021/12/19 10:40:45;;;;;;;10.18;1.45;;;;;;;;;;4985514;28;20049;-58
2021/12/19 10:43:16;;;;;;;14.73;2.28;;;;;;;;;;4984579;28;20048;-59
2021/12/19 10:45:54;;;;;;;11.10;1.60;;;;;;;;;;5000953;28;20212;-60
2021/12/19 10:48:22;;;;;;;12.82;2.40;;;;;;;;;;4969829;28;20034;-59
2021/12/19 10:50:54;;;;;;;15.55;1.90;;;;;;;;;;4977634;28;20045;-59
2021/12/19 10:53:28;;;;;;;16.40;2.57;;;;;;;;;;4986321;28;20429;-59
2021/12/19 10:55:56;;;;;;;20.50;2.58;;;;;;;;;;4986043;28;20124;-59
2021/12/19 10:58:23;;;;;;;14.68;2.63;;;;;;;;;;4968141;28;20461;-58
2021/12/19 11:01:08;;;;;;;9.15;1.67;;;;;;;;;;4986643;28;20494;-60
2021/12/19 11:03:39;;;;;;;19.67;1.85;;;;;;;;;;4986342;28;20037;-59
2021/12/19 11:06:19;;;;;;;17.00;2.20;;;;;;;;;;5003254;28;20033;-59
2021/12/19 11:08:47;;;;;;;14.30;2.28;;;;;;;;;;4987209;28;20581;-59
2021/12/19 11:11:30;;;;;;;12.73;2.05;;;;;;;;;;4986097;28;20022;-59
2021/12/19 11:13:58;;;;;;;17.40;2.55;;;;;;;;;;4998868;28;20128;-58
2021/12/19 11:16:28;;;;;;;10.38;1.80;;;;;;;;;;4983995;28;20030;-59
2021/12/19 11:18:54;;;;;;;15.98;2.42;;;;;;;;;;4984806;28;20038;-59
2021/12/19 11:21:22;;;;;;;17.23;2.20;;;;;;;;;;4987841;28;20029;-59
2021/12/19 11:23:52;;;;;;;15.50;1.70;;;;;;;;;;4985148;28;20034;-59
2021/12/19 11:26:20;;;;;;;8.73;1.83;;;;;;;;;;4985453;28;20034;-59
2021/12/19 11:28:49;;;;;;;12.18;1.95;;;;;;;;;;4982833;28;20037;-60
2021/12/19 11:31:15;;;;;;;19.73;2.63;;;;;;;;;;4980001;28;20067;-60
2021/12/19 11:34:01;;;;;;;12.00;1.98;;;;;;;;;;4976473;28;20037;-60
2021/12/19 11:36:36;;;;;;;15.85;2.20;;;;;;;;;;4981993;28;20022;-60
2021/12/19 11:39:02;;;;;;;27.48;2.38;;;;;;;;;;4985639;28;20037;-60
2021/12/19 11:41:28;;;;;;;25.13;2.92;;;;;;;;;;4983261;28;20034;-58
2021/12/19 11:43:58;;;;;;;25.65;2.78;;;;;;;;;;4985586;28;20463;-59
2021/12/19 11:46:46;;;;;;;19.67;1.98;;;;;;;;;;4975991;28;20062;-59
2021/12/19 11:49:21;;;;;;;18.45;2.30;;;;;;;;;;4973701;28;20066;-58
2021/12/19 11:51:49;;;;;;;9.18;1.73;;;;;;;;;;4981888;28;20084;-58
2021/12/19 11:54:17;;;;;;;16.33;2.03;;;;;;;;;;4980257;28;20072;-58
2021/12/19 11:57:06;;;;;;;21.63;2.38;;;;;;;;;;4976301;28;20050;-58
2021/12/19 11:59:32;;;;;;;27.83;2.17;;;;;;;;;;4981890;28;20374;-58
2021/12/19 12:02:17;;;;;;;14.15;2.55;;;;;;;;;;4984974;28;20029;-59
2021/12/19 12:04:43;;;;;;;23.80;2.72;;;;;;;;;;4983925;28;20415;-59
2021/12/19 12:07:08;;;;;;;21.10;2.13;;;;;;;;;;4987085;28;20049;-59
2021/12/19 12:09:40;;;;;;;13.20;1.83;;;;;;;;;;4988756;28;20129;-59
2021/12/19 12:12:11;;;;;;;23.33;2.78;;;;;;;;;;4989005;28;20058;-59
2021/12/19 12:14:48;;;;;;;12.98;1.80;;;;;;;;;;4987264;28;20034;-60
2021/12/19 12:17:22;;;;;;;11.65;1.77;;;;;;;;;;4979163;28;20136;-58
2021/12/19 12:19:52;;;;;;;15.23;2.47;;;;;;;;;;4988752;28;20767;-58
2021/12/19 12:25:03;;;;;;;14.73;2.17;;;;;;;;;;4987237;28;20124;-58
2021/12/19 12:27:51;;;;;;;17.05;3.28;;;;;;;;;;4989546;28;20044;-58
2021/12/19 12:30:25;;;;;;;13.07;2.13;;;;;;;;;;4985151;28;20034;-59
2021/12/19 12:33:00;;;;;;;13.85;2.25;;;;;;;;;;4988132;28;20037;-59
2021/12/19 12:35:28;;;;;;;13.73;2.05;;;;;;;;;;4986233;28;20026;-59
2021/12/19 12:37:58;;;;;;;16.95;2.13;;;;;;;;;;5003932;28;20033;-59
2021/12/19 12:40:29;;;;;;;14.02;1.73;;;;;;;;;;4987646;28;21952;-58
2021/12/19 12:42:59;;;;;;;26.33;2.08;;;;;;;;;;4988548;28;20033;-59
2021/12/19 12:45:25;;;;;;;20.42;2.33;;;;;;;;;;4985994;28;20037;-59
2021/12/19 12:47:50;;;;;;;11.05;1.77;;;;;;;;;;4988037;28;21954;-58
2021/12/19 12:50:21;;;;;;;13.27;2.20;;;;;;;;;;4987024;28;20195;-59
2021/12/19 12:52:47;;;;;;;19.58;1.98;;;;;;;;;;5002227;28;20574;-59
2021/12/19 12:55:14;;;;;;;14.45;1.85;;;;;;;;;;4984634;28;20054;-59
2021/12/19 12:57:41;;;;;;;16.02;1.50;;;;;;;;;;4977824;28;20038;-60
2021/12/19 13:00:18;;;;;;;10.50;2.05;;;;;;;;;;4987980;28;20843;-59
2021/12/19 13:02:52;;;;;;;10.95;2.22;;;;;;;;;;4979062;28;20032;-59
2021/12/19 13:05:20;;;;;;;22.40;2.13;;;;;;;;;;4987044;28;20034;-59
2021/12/19 13:07:46;;;;;;;18.90;2.60;;;;;;;;;;4985644;28;20045;-59
2021/12/19 13:10:11;;;;;;;9.32;1.55;;;;;;;;;;4983330;28;20034;-59
2021/12/19 13:12:41;;;;;;;21.80;2.55;;;;;;;;;;4986853;28;20049;-59
2021/12/19 13:15:15;;;;;;;15.80;2.05;;;;;;;;;;4969267;28;20033;-59
2021/12/19 13:17:45;;;;;;;25.80;2.65;;;;;;;;;;4985654;28;20042;-59
2021/12/19 13:20:20;;;;;;;20.35;2.40;;;;;;;;;;4983404;28;20091;-59
2021/12/19 13:22:47;;;;;;;18.23;2.45;;;;;;;;;;4984170;28;20512;-59
2021/12/19 13:25:19;;;;;;;25.33;2.88;;;;;;;;;;4983652;28;20156;-59
2021/12/19 13:27:47;;;;;;;20.48;2.40;;;;;;;;;;4988043;28;20627;-59
2021/12/19 13:30:24;;;;;;;15.05;1.83;;;;;;;;;;4982789;28;20033;-59
2021/12/19 13:33:08;;;;;;;30.20;2.58;;;;;;;;;;4984719;28;20034;-60
2021/12/19 13:35:37;;;;;;;28.10;2.60;;;;;;;;;;4985249;28;20852;-60
2021/12/19 13:38:06;;;;;;;24.02;2.40;;;;;;;;;;4988373;28;20041;-59
2021/12/19 13:40:37;;;;;;;23.70;3.40;;;;;;;;;;4984285;28;20080;-60
2021/12/19 13:43:04;;;;;;;22.30;2.33;;;;;;;;;;4987173;28;20488;-58
2021/12/19 13:45:33;;;;;;;25.05;2.17;;;;;;;;;;4985970;28;20025;-58
2021/12/19 13:48:03;;;;;;;23.30;2.67;;;;;;;;;;4984356;28;20156;-58
2021/12/19 13:50:38;;;;;;;15.75;1.73;;;;;;;;;;4984877;28;20034;-60
2021/12/19 13:53:04;;;;;;;12.85;2.00;;;;;;;;;;4977710;28;20030;-59
2021/12/19 13:56:04;;;;;;;16.13;2.15;;;;;;;;;;4987329;28;20152;-59
2021/12/19 13:58:31;;;;;;;15.90;1.70;;;;;;;;;;4972116;28;20054;-59
2021/12/19 14:01:11;;;;;;;15.40;2.35;;;;;;;;;;4984037;28;20030;-59
2021/12/19 14:03:37;;;;;;;20.08;1.83;;;;;;;;;;4986316;28;20034;-59
2021/12/19 14:06:08;;;;;;;9.48;1.90;;;;;;;;;;4985114;28;20030;-59
2021/12/19 14:08:36;;;;;;;10.52;1.02;;;;;;;;;;4986406;28;20048;-59
2021/12/19 14:11:34;;;;;;;13.20;1.35;;;;;;;;;;4986018;28;20076;-59
2021/12/19 14:14:08;;;;;;;4.70;0.82;;;;;;;;;;4954424;28;20046;-59
2021/12/19 14:16:39;;;;;;;6.80;1.30;;;;;;;;;;4967425;28;20041;-59
2021/12/19 14:19:18;;;;;;;13.60;1.70;;;;;;;;;;4981159;28;20069;-59
2021/12/19 14:21:43;;;;;;;10.27;1.27;;;;;;;;;;4965329;28;20042;-59
2021/12/19 14:24:10;;;;;;;11.18;1.50;;;;;;;;;;4965439;28;20493;-59
2021/12/19 14:26:41;;;;;;;7.22;1.10;;;;;;;;;;4965847;28;20053;-59
2021/12/19 14:29:19;;;;;;;7.82;1.30;;;;;;;;;;4964369;28;20041;-59
2021/12/19 14:31:49;;;;;;;7.75;1.50;;;;;;;;;;4959483;28;20042;-59
2021/12/19 14:34:21;;;;;;;9.48;1.08;;;;;;;;;;4963812;28;20677;-59
2021/12/19 14:36:54;;;;;;;6.78;1.48;;;;;;;;;;4965354;28;20035;-59
2021/12/19 14:39:25;;;;;;;6.45;1.02;;;;;;;;;;4962837;28;20120;-59
2021/12/19 14:42:05;;;;;;;7.60;1.02;;;;;;;;;;4966525;28;20038;-59
2021/12/19 14:44:30;;;;;;;9.88;0.65;;;;;;;;;;4964498;28;20046;-59
2021/12/19 14:46:58;;;;;;;16.85;1.05;;;;;;;;;;4966910;28;20080;-59
2021/12/19 14:49:23;;;;;;;17.83;1.08;;;;;;;;;;4979996;28;20626;-59
2021/12/19 14:51:58;;;;;;;5.88;0.88;;;;;;;;;;4965892;28;20030;-59
2021/12/19 14:54:28;;;;;;;20.90;0.98;;;;;;;;;;4950108;28;20046;-59
2021/12/19 14:56:57;;;;;;;6.60;0.90;;;;;;;;;;4964805;28;20485;-59
2021/12/19 14:59:27;;;;;;;11.73;1.17;;;;;;;;;;4964697;28;20149;-60
2021/12/19 15:01:56;;;;;;;11.95;1.42;;;;;;;;;;4966746;28;20121;-61
2021/12/19 15:04:25;;;;;;;3.83;0.45;;;;;;;;;;4964793;28;20030;-59
2021/12/19 15:06:58;;;;;;;9.40;0.80;;;;;;;;;;4966108;28;20035;-59
2021/12/19 15:09:29;;;;;;;14.55;1.02;;;;;;;;;;4965139;28;20086;-59
2021/12/19 15:11:59;;;;;;;6.82;1.00;;;;;;;;;;4967038;28;21656;-59
2021/12/19 15:14:29;;;;;;;13.80;1.70;;;;;;;;;;4965792;28;20077;-58
2021/12/19 15:16:57;;;;;;;10.48;1.45;;;;;;;;;;4964519;28;20026;-59
2021/12/19 15:19:25;;;;;;;10.93;1.60;;;;;;;;;;4967751;28;20054;-59
2021/12/19 15:21:50;;;;;;;5.70;1.30;;;;;;;;;;4964858;28;20456;-59
2021/12/19 15:24:16;;;;;;;9.15;1.33;;;;;;;;;;4964099;28;20080;-58
2021/12/19 15:26:44;;;;;;;13.45;1.50;;;;;;;;;;4950215;28;20374;-59
2021/12/19 15:29:12;;;;;;;4.38;1.40;;;;;;;;;;4980952;28;20038;-59
2021/12/19 15:31:42;;;;;;;17.75;1.20;;;;;;;;;;4940759;28;20696;-59
2021/12/19 15:34:08;;;;;;;7.47;1.20;;;;;;;;;;4965128;28;20030;-59
2021/12/19 15:36:33;;;;;;;14.50;1.23;;;;;;;;;;4957619;28;20345;-59
2021/12/19 15:39:01;;;;;;;6.07;0.82;;;;;;;;;;4967470;28;20030;-59
2021/12/19 15:41:29;;;;;;;10.15;1.48;;;;;;;;;;4963798;28;20038;-59
2021/12/19 15:43:54;;;;;;;11.00;0.93;;;;;;;;;;4966227;28;20263;-60
2021/12/19 15:46:25;;;;;;;18.23;1.42;;;;;;;;;;4969028;28;20038;-60
2021/12/19 15:48:50;;;;;;;10.73;1.20;;;;;;;;;;4950344;28;20034;-60